Station History

Weather Underground - logo

Station Historical Data
Daily Summary for January 19, 2018 Units:  Metric    English   Both
« Previous Day
Next Day »
Daily Weekly Monthly Yearly Custom
  High: Low: Average:
Temperature: 11.7 °C 4.6 °C 9.4 °C
Dew Point: 9.9 °C 3.9 °C 8.2 °C
Humidity: 97 % 80 % 92 %
Wind Speed: 13 km/h 0 km/h 2.4 km/h
Wind Gust: 13 km/h - -
Wind:- - WNW
Pressure: 1019.9 hPa 1016.1 hPa -
Precipitation: 4.32 mm    
Historical Graphs
 
 
Tabular Data for January 19, 2018
Time Temperature Dew Point Pressure Wind Wind Speed Wind Gust Humidity Rainfall Rate (Hourly)
00:04 8.7 °C 8.1 °C 1017.2 hPa Calm     96 % 0 mm
00:09 8.8 °C 8.2 °C 1017.2 hPa Calm     96 % 0 mm
00:14 8.8 °C 8.2 °C 1017.2 hPa Calm     96 % 0 mm
00:19 8.9 °C 8.3 °C 1017.2 hPa Calm     96 % 0 mm
00:24 9.1 °C 8.4 °C 1017.2 hPa Calm     96 % 0 mm
00:29 9.2 °C 8.6 °C 1017.2 hPa Calm     96 % 0 mm
00:34 9.2 °C 8.6 °C 1017.2 hPa ESE 3.7 km/h 3.7 km/h 96 % 0 mm
00:39 9.2 °C 8.6 °C 1017.5 hPa Calm     96 % 0 mm
00:44 9.3 °C 8.7 °C 1017.5 hPa Calm     96 % 0 mm
00:49 9.3 °C 8.7 °C 1017.5 hPa Calm     96 % 0 mm
00:55 9.3 °C 8.7 °C 1017.5 hPa Calm     96 % 0 mm
01:00 9.3 °C 8.7 °C 1017.5 hPa Calm     96 % 0 mm
01:05 9.3 °C 8.7 °C 1017.5 hPa Calm     96 % 0 mm
01:10 9.4 °C 8.8 °C 1017.5 hPa Calm     96 % 0 mm
01:15 9.4 °C 9 °C 1017.8 hPa ESE 1.9 km/h 1.9 km/h 97 % 0 mm
01:20 9.4 °C 8.8 °C 1017.5 hPa Calm     96 % 0 mm
01:25 9.4 °C 8.8 °C 1017.5 hPa Calm     96 % 0 mm
01:30 9.4 °C 9 °C 1017.5 hPa Calm     97 % 0 mm
01:35 9.5 °C 9.1 °C 1017.5 hPa Calm     97 % 0 mm
01:40 9.6 °C 9.1 °C 1017.5 hPa Calm     97 % 0 mm
01:45 9.6 °C 9.2 °C 1017.8 hPa West 1.9 km/h 1.9 km/h 97 % 0 mm
01:50 9.7 °C 9.2 °C 1017.8 hPa Calm     97 % 0 mm
01:55 9.7 °C 9.2 °C 1017.8 hPa NW 1.9 km/h 1.9 km/h 97 % 0 mm
02:00 9.6 °C 9.2 °C 1017.8 hPa WNW 3.7 km/h 3.7 km/h 97 % 0 mm
02:05 9.6 °C 9.2 °C 1017.8 hPa NW 3.7 km/h 3.7 km/h 97 % 0 mm
02:10 9.6 °C 9.2 °C 1018.2 hPa NW 1.9 km/h 1.9 km/h 97 % 0 mm
02:15 9.6 °C 9.2 °C 1018.2 hPa Calm     97 % 0 mm
02:20 9.6 °C 9.2 °C 1018.2 hPa NW 1.9 km/h 1.9 km/h 97 % 0 mm
02:25 9.7 °C 9.2 °C 1018.2 hPa NW 1.9 km/h 1.9 km/h 97 % 0 mm
02:30 9.7 °C 9.3 °C 1018.2 hPa Calm     97 % 0 mm
02:35 9.7 °C 9.3 °C 1018.2 hPa Calm     97 % 0 mm
02:40 9.8 °C 9.4 °C 1018.2 hPa Calm     97 % 0 mm
02:45 9.8 °C 9.4 °C 1018.2 hPa Calm   0.3 km/h 97 % 0 mm
02:50 9.9 °C 9.5 °C 1018.2 hPa Calm     97 % 0 mm
02:55 9.9 °C 9.5 °C 1018.2 hPa NW 1.9 km/h 1.9 km/h 97 % 0 mm
03:00 9.9 °C 9.4 °C 1018.2 hPa Calm     97 % 0 mm
03:05 9.9 °C 9.5 °C 1018.2 hPa Calm     97 % 0 mm
03:10 10 °C 9.6 °C 1017.8 hPa Calm     97 % 0 mm
03:15 10 °C 9.6 °C 1018.2 hPa Calm     97 % 0 mm
03:20 10.1 °C 9.6 °C 1017.8 hPa Calm     97 % 0 mm
03:25 10.1 °C 9.6 °C 1017.8 hPa Calm     97 % 0 mm
03:30 10.1 °C 9.6 °C 1017.8 hPa Calm     97 % 0.25 mm
03:35 10.2 °C 9.7 °C 1017.8 hPa Calm     97 % 0.25 mm
03:40 10.2 °C 9.7 °C 1017.8 hPa Calm   0.2 km/h 97 % 0.25 mm
03:45 10.2 °C 9.7 °C 1017.8 hPa NW 1.9 km/h 1.9 km/h 97 % 0.25 mm
03:50 10.2 °C 9.8 °C 1017.8 hPa WNW 1.9 km/h 1.9 km/h 97 % 0.51 mm
03:55 10.3 °C 9.9 °C 1017.8 hPa WNW 4.8 km/h 4.8 km/h 97 % 0.51 mm
04:00 10.4 °C 9.9 °C 1017.8 hPa NW 5.6 km/h 5.6 km/h 97 % 0.51 mm
04:05 10.4 °C 9.9 °C 1017.8 hPa NW 5.6 km/h 5.6 km/h 97 % 0.51 mm
04:10 10.3 °C 9.9 °C 1017.8 hPa NW 3.7 km/h 3.7 km/h 97 % 0.51 mm
04:15 10.3 °C 9.8 °C 1017.8 hPa NW 5.6 km/h 5.6 km/h 97 % 0.76 mm
04:20 10.2 °C 9.8 °C 1017.8 hPa North 8 km/h 8 km/h 97 % 0.76 mm
04:26 10.2 °C 9.8 °C 1017.8 hPa NW 7.4 km/h 7.4 km/h 97 % 1.02 mm
04:31 10.1 °C 9.5 °C 1018.2 hPa NW 5.6 km/h 5.6 km/h 96 % 1.02 mm
04:36 10.1 °C 9.4 °C 1018.2 hPa NW 9.7 km/h 9.7 km/h 96 % 1.02 mm
04:41 9.9 °C 9.3 °C 1018.2 hPa NNW 5.6 km/h 5.6 km/h 96 % 1.27 mm
04:46 9.8 °C 9.2 °C 1017.8 hPa NNW 7.4 km/h 7.4 km/h 96 % 1.52 mm
04:51 9.8 °C 9.2 °C 1018.2 hPa WNW 6.4 km/h 6.4 km/h 96 % 1.52 mm
04:56 9.7 °C 9.1 °C 1018.2 hPa NW 7.4 km/h 7.4 km/h 96 % 1.52 mm
05:01 9.7 °C 9.1 °C 1018.2 hPa NW 11.1 km/h 11.1 km/h 96 % 1.52 mm
05:06 9.6 °C 8.8 °C 1018.2 hPa NW 8 km/h 8 km/h 95 % 1.52 mm
05:11 9.5 °C 8.7 °C 1017.8 hPa NW 11.1 km/h 11.1 km/h 95 % 1.78 mm
05:16 9.4 °C 8.7 °C 1017.8 hPa NW 13 km/h 13 km/h 95 % 1.52 mm
05:21 9.4 °C 8.7 °C 1018.2 hPa NW 13 km/h 13 km/h 95 % 1.52 mm
05:26 9.4 °C 8.6 °C 1018.2 hPa NW 7.4 km/h 7.4 km/h 95 % 1.27 mm
05:31 9.4 °C 8.6 °C 1018.2 hPa NNW 11.1 km/h 11.1 km/h 95 % 1.02 mm
05:36 9.4 °C 8.6 °C 1017.8 hPa NW 9.3 km/h 9.3 km/h 95 % 1.02 mm
05:41 9.4 °C 8.7 °C 1017.8 hPa NW 5.6 km/h 5.6 km/h 95 % 1.27 mm
05:46 9.5 °C 8.7 °C 1017.8 hPa WNW 5.6 km/h 5.6 km/h 95 % 1.02 mm
05:51 9.5 °C 8.7 °C 1017.8 hPa WNW 13 km/h 13 km/h 95 % 0.76 mm
05:56 9.6 °C 8.8 °C 1017.8 hPa NW 5.6 km/h 5.6 km/h 95 % 0.76 mm
06:01 9.6 °C 8.8 °C 1018.2 hPa NW 7.4 km/h 7.4 km/h 95 % 0.76 mm
06:06 9.6 °C 8.8 °C 1018.2 hPa NW 1.9 km/h 1.9 km/h 95 % 0.76 mm
06:11 9.6 °C 8.8 °C 1018.2 hPa NW 4.8 km/h 4.8 km/h 95 % 0.51 mm
06:16 9.6 °C 8.8 °C 1018.2 hPa NW 3.7 km/h 3.7 km/h 95 % 0.76 mm
06:21 9.6 °C 8.8 °C 1018.2 hPa NW 3.7 km/h 3.7 km/h 95 % 0.76 mm
06:26 9.6 °C 8.8 °C 1018.2 hPa WNW 3.7 km/h 3.7 km/h 95 % 0.76 mm
06:31 9.6 °C 8.8 °C 1018.2 hPa WNW 3.7 km/h 3.7 km/h 95 % 0.76 mm
06:36 9.6 °C 8.8 °C 1018.2 hPa NW 3.7 km/h 3.7 km/h 95 % 0.76 mm
06:41 9.6 °C 8.8 °C 1018.2 hPa West 1.9 km/h 1.9 km/h 95 % 0.25 mm
06:46 9.6 °C 8.8 °C 1018.2 hPa NNW 1.9 km/h 1.9 km/h 95 % 0.25 mm
06:51 9.6 °C 8.8 °C 1018.2 hPa NNE 1.9 km/h 1.9 km/h 95 % 0.25 mm
06:56 9.6 °C 8.8 °C 1018.2 hPa NW 5.6 km/h 5.6 km/h 95 % 0.25 mm
07:01 9.6 °C 8.8 °C 1018.2 hPa NW 1.9 km/h 1.9 km/h 95 % 0.25 mm
07:06 9.6 °C 8.8 °C 1018.2 hPa Calm   0.5 km/h 95 % 0.25 mm
07:11 9.6 °C 8.8 °C 1018.2 hPa NW 1.9 km/h 1.9 km/h 95 % 0.25 mm
07:16 9.6 °C 8.8 °C 1018.5 hPa NW 1.9 km/h 1.9 km/h 95 % 0 mm
07:21 9.6 °C 8.8 °C 1018.5 hPa NW 3.7 km/h 3.7 km/h 95 % 0 mm
07:26 9.6 °C 8.8 °C 1018.5 hPa Calm     95 % 0 mm
07:31 9.6 °C 8.8 °C 1018.5 hPa NW 3.2 km/h 3.2 km/h 95 % 0.25 mm
07:36 9.6 °C 8.8 °C 1018.5 hPa NW 1.9 km/h 1.9 km/h 95 % 0.25 mm
07:41 9.5 °C 8.7 °C 1018.5 hPa Calm     95 % 0.25 mm
07:46 9.5 °C 8.9 °C 1018.8 hPa NW 1.9 km/h 1.9 km/h 96 % 0.25 mm
07:51 9.5 °C 8.9 °C 1018.8 hPa WNW 1.9 km/h 1.9 km/h 96 % 0.25 mm
07:56 9.5 °C 8.9 °C 1018.8 hPa NW 1.9 km/h 1.9 km/h 96 % 0.51 mm
08:01 9.5 °C 8.9 °C 1018.8 hPa NW 1.9 km/h 1.9 km/h 96 % 0.51 mm
08:06 9.6 °C 8.9 °C 1018.8 hPa NW 1.9 km/h 1.9 km/h 96 % 0.51 mm
08:12 9.6 °C 8.9 °C 1018.8 hPa WNW 3.2 km/h 3.2 km/h 96 % 0.51 mm
08:16 9.5 °C 8.9 °C 1018.8 hPa NW 3.7 km/h 3.7 km/h 96 % 0.51 mm
08:22 9.6 °C 8.9 °C 1018.8 hPa WNW 1.9 km/h 1.9 km/h 96 % 0.76 mm
08:26 9.6 °C 9 °C 1018.8 hPa Calm     96 % 0.76 mm
08:31 9.7 °C 9.1 °C 1018.8 hPa NW 1.9 km/h 1.9 km/h 96 % 0.51 mm
08:36 9.7 °C 9.1 °C 1018.8 hPa NNW 1.9 km/h 1.9 km/h 96 % 0.51 mm
08:41 9.7 °C 9.1 °C 1018.8 hPa Calm     96 % 0.51 mm
08:47 9.8 °C 9.2 °C 1018.8 hPa Calm     96 % 0.51 mm
08:52 9.8 °C 9.2 °C 1018.8 hPa NW 1.9 km/h 1.9 km/h 96 % 0.25 mm
08:57 9.8 °C 9.2 °C 1019.2 hPa North 3.7 km/h 3.7 km/h 96 % 0.25 mm
09:02 9.9 °C 9.3 °C 1019.2 hPa Calm     96 % 0.25 mm
09:07 9.9 °C 9.3 °C 1018.8 hPa West 1.9 km/h 1.9 km/h 96 % 0.25 mm
09:12 9.9 °C 9.3 °C 1018.8 hPa West 1.6 km/h   96 % 0.25 mm
09:17 9.9 °C 9.3 °C 1019.2 hPa Calm     96 % 0.25 mm
09:22 10 °C 9.4 °C 1019.2 hPa WNW 1.9 km/h 1.9 km/h 96 % 0 mm
09:27 10 °C 9.4 °C 1019.2 hPa WNW 3.7 km/h 3.7 km/h 96 % 0 mm
09:32 10 °C 9.4 °C 1019.5 hPa Calm     96 % 0 mm
09:37 10.1 °C 9.5 °C 1019.5 hPa NW 1.9 km/h 1.9 km/h 96 % 0 mm
09:42 10 °C 9.2 °C 1019.5 hPa NW 3.7 km/h 3.7 km/h 95 % 0 mm
09:47 10.1 °C 9.3 °C 1019.5 hPa NW 3.7 km/h 3.7 km/h 95 % 0 mm
09:52 10.1 °C 9.3 °C 1019.5 hPa NW 4.8 km/h 4.8 km/h 95 % 0 mm
09:57 10 °C 9.2 °C 1019.5 hPa NNW 3.7 km/h 3.7 km/h 95 % 0.25 mm
10:02 9.9 °C 9.2 °C 1019.5 hPa WNW 3.7 km/h 3.7 km/h 95 % 0.25 mm
10:07 9.9 °C 9.2 °C 1019.5 hPa NW 3.7 km/h 3.7 km/h 95 % 0.25 mm
10:12 9.9 °C 9.1 °C 1019.5 hPa NW 1.9 km/h 1.9 km/h 95 % 0.25 mm
10:17 9.9 °C 9.2 °C 1019.5 hPa NW 1.9 km/h 1.9 km/h 95 % 0.51 mm
10:22 9.9 °C 9.2 °C 1019.9 hPa NW 1.9 km/h 1.9 km/h 95 % 0.51 mm
10:27 9.9 °C 9.2 °C 1019.5 hPa WNW 3.7 km/h 3.7 km/h 95 % 0.51 mm
10:32 10 °C 9.2 °C 1019.5 hPa NW 3.7 km/h 3.7 km/h 95 % 0.51 mm
10:37 10.1 °C 9.3 °C 1019.5 hPa NW 1.9 km/h   95 % 0.51 mm
10:42 10.1 °C 9.3 °C 1019.5 hPa WNW 1.9 km/h 1.9 km/h 95 % 0.51 mm
10:47 10 °C 9.2 °C 1019.5 hPa NW 3.7 km/h 3.7 km/h 95 % 0.51 mm
10:52 10 °C 9.1 °C 1019.5 hPa NW 3.7 km/h 3.7 km/h 94 % 0.51 mm
10:57 10 °C 9.1 °C 1019.5 hPa NW 3.7 km/h 3.7 km/h 94 % 0.25 mm
11:02 10 °C 9.1 °C 1019.5 hPa NW 5.6 km/h 5.6 km/h 94 % 0.25 mm
11:07 10.1 °C 9.2 °C 1019.5 hPa NW 1.9 km/h 1.9 km/h 94 % 0.25 mm
11:12 10.2 °C 9.2 °C 1019.2 hPa NW 1.9 km/h   94 % 0.25 mm
11:17 10.2 °C 9.2 °C 1019.2 hPa NW 3.7 km/h 3.7 km/h 93 % 0 mm
11:22 10.2 °C 9.2 °C 1018.8 hPa WNW 1.9 km/h   93 % 0 mm
11:27 10.3 °C 9.1 °C 1018.8 hPa WNW 1.9 km/h 1.9 km/h 92 % 0 mm
11:32 10.4 °C 9.2 °C 1018.8 hPa NW 3.2 km/h 3.2 km/h 92 % 0 mm
11:38 10.5 °C 9.3 °C 1018.8 hPa NW 3.7 km/h 3.7 km/h 92 % 0 mm
11:43 10.5 °C 9.1 °C 1018.8 hPa NW 3.7 km/h 3.7 km/h 91 % 0 mm
11:48 10.6 °C 9.2 °C 1018.5 hPa WNW 5.6 km/h 5.6 km/h 91 % 0 mm
11:53 10.6 °C 9 °C 1018.5 hPa NW 3.7 km/h 3.7 km/h 90 % 0 mm
11:58 10.6 °C 9.1 °C 1018.5 hPa NW 5.6 km/h 5.6 km/h 90 % 0 mm
12:03 10.6 °C 8.9 °C 1018.5 hPa NW 1.9 km/h 1.9 km/h 89 % 0 mm
12:08 10.7 °C 9 °C 1018.5 hPa WNW 5.6 km/h 5.6 km/h 89 % 0 mm
12:13 10.7 °C 9 °C 1018.5 hPa NW 5.6 km/h 5.6 km/h 89 % 0 mm
12:18 10.7 °C 8.8 °C 1018.2 hPa WNW 5.6 km/h 5.6 km/h 88 % 0 mm
12:23 10.7 °C 8.8 °C 1018.2 hPa NW 6.4 km/h 6.4 km/h 88 % 0 mm
12:28 10.7 °C 8.8 °C 1018.2 hPa NW 9.3 km/h 9.3 km/h 88 % 0 mm
12:33 10.7 °C 8.8 °C 1018.2 hPa NW 9.3 km/h 9.3 km/h 88 % 0 mm
12:38 10.8 °C 8.9 °C 1017.8 hPa NW 5.6 km/h 5.6 km/h 88 % 0 mm
12:43 10.9 °C 9 °C 1017.8 hPa NW 5.6 km/h 5.6 km/h 88 % 0 mm
12:48 10.9 °C 8.8 °C 1017.8 hPa WNW 5.6 km/h 5.6 km/h 87 % 0 mm
12:53 10.9 °C 9.1 °C 1017.8 hPa WNW 5.6 km/h 5.6 km/h 88 % 0 mm
12:58 10.9 °C 8.9 °C 1017.5 hPa WNW 8 km/h 8 km/h 87 % 0 mm
13:03 10.9 °C 8.9 °C 1017.5 hPa WNW 5.6 km/h 5.6 km/h 87 % 0 mm
13:08 11 °C 9.1 °C 1017.5 hPa NW 5.6 km/h 5.6 km/h 88 % 0 mm
13:13 10.9 °C 8.7 °C 1017.5 hPa NW 5.6 km/h 5.6 km/h 86 % 0 mm
13:18 10.9 °C 8.6 °C 1017.2 hPa WNW 9.3 km/h 9.3 km/h 86 % 0 mm
13:23 10.9 °C 8.9 °C 1017.2 hPa WNW 5.6 km/h 5.6 km/h 87 % 0 mm
13:28 10.9 °C 8.7 °C 1017.2 hPa NW 6.4 km/h 6.4 km/h 86 % 0 mm
13:33 10.9 °C 8.7 °C 1017.2 hPa NW 11.1 km/h 11.1 km/h 86 % 0 mm
13:38 11.1 °C 9 °C 1017.2 hPa NW 5.6 km/h 5.6 km/h 87 % 0 mm
13:43 11.1 °C 8.8 °C 1017.2 hPa WNW 3.7 km/h 3.7 km/h 86 % 0 mm
13:48 11.1 °C 8.8 °C 1017.2 hPa WNW 7.4 km/h 7.4 km/h 86 % 0 mm
13:53 11.2 °C 8.7 °C 1017.2 hPa NNW 5.6 km/h 5.6 km/h 85 % 0 mm
13:58 11.2 °C 8.8 °C 1017.2 hPa NW 9.3 km/h 9.3 km/h 85 % 0 mm
14:03 11.2 °C 8.8 °C 1017.2 hPa NW 5.6 km/h 5.6 km/h 85 % 0 mm
14:08 11.3 °C 8.8 °C 1017.2 hPa NW 3.7 km/h 3.7 km/h 85 % 0 mm
14:13 11.3 °C 8.9 °C 1016.8 hPa NW 5.6 km/h 5.6 km/h 85 % 0 mm
14:18 11.4 °C 8.9 °C 1016.8 hPa West 5.6 km/h 5.6 km/h 85 % 0 mm
14:23 11.5 °C 8.9 °C 1016.8 hPa NNW 1.9 km/h 2.1 km/h 84 % 0 mm
14:28 11.6 °C 8.8 °C 1016.8 hPa NNW 3.7 km/h 3.7 km/h 83 % 0 mm
14:33 11.7 °C 8.9 °C 1016.8 hPa NW 3.7 km/h 3.7 km/h 83 % 0 mm
14:38 11.7 °C 8.9 °C 1016.8 hPa NW 5.6 km/h 5.6 km/h 83 % 0 mm
14:43 11.7 °C 8.7 °C 1016.8 hPa NNW 3.7 km/h 3.7 km/h 82 % 0 mm
14:48 11.7 °C 8.5 °C 1016.8 hPa NNW 7.4 km/h 7.4 km/h 81 % 0 mm
14:53 11.7 °C 8.5 °C 1016.8 hPa NNW 3.7 km/h 3.7 km/h 81 % 0 mm
14:58 11.7 °C 8.3 °C 1016.8 hPa WNW 5.6 km/h 5.6 km/h 80 % 0 mm
15:03 11.7 °C 8.5 °C 1016.8 hPa NW 3.2 km/h 3.2 km/h 81 % 0 mm
15:08 11.7 °C 8.3 °C 1016.8 hPa WNW 5.6 km/h 5.6 km/h 80 % 0 mm
15:13 11.7 °C 8.7 °C 1016.8 hPa WNW 1.9 km/h 1.9 km/h 82 % 0 mm
15:18 11.7 °C 8.7 °C 1016.8 hPa West 1.9 km/h 1.9 km/h 82 % 0 mm
15:23 11.7 °C 8.5 °C 1016.8 hPa NW 5.6 km/h 5.6 km/h 81 % 0 mm
15:28 11.6 °C 8.4 °C 1016.8 hPa NW 1.9 km/h 1.9 km/h 81 % 0 mm
15:33 11.6 °C 8.4 °C 1016.5 hPa WNW 3.7 km/h 3.7 km/h 81 % 0 mm
15:38 11.6 °C 8.4 °C 1016.5 hPa WNW 3.7 km/h   81 % 0 mm
15:43 11.5 °C 8.3 °C 1016.5 hPa NW 3.2 km/h 3.2 km/h 81 % 0 mm
15:48 11.5 °C 8.3 °C 1016.8 hPa NW 6.4 km/h 6.4 km/h 81 % 0 mm
15:53 11.4 °C 8.3 °C 1016.5 hPa NW 3.2 km/h 3.2 km/h 81 % 0 mm
15:58 11.4 °C 8.3 °C 1016.5 hPa WNW 1.9 km/h 1.9 km/h 81 % 0 mm
16:03 11.4 °C 8.2 °C 1016.5 hPa WNW 3.7 km/h 3.7 km/h 81 % 0 mm
16:08 11.3 °C 8 °C 1016.5 hPa West 3.7 km/h 3.7 km/h 80 % 0 mm
16:13 11.3 °C 8 °C 1016.5 hPa NW 1.9 km/h 1.9 km/h 80 % 0 mm
16:18 11.3 °C 7.9 °C 1016.5 hPa NW 1.9 km/h   80 % 0 mm
16:23 11.2 °C 7.9 °C 1016.5 hPa NW 1.9 km/h 1.9 km/h 80 % 0 mm
16:28 11.2 °C 8 °C 1016.1 hPa Calm     81 % 0 mm
16:33 11.1 °C 7.9 °C 1016.5 hPa Calm     81 % 0 mm
16:38 11.1 °C 7.9 °C 1016.1 hPa Calm     81 % 0 mm
16:43 11 °C 7.9 °C 1016.1 hPa Calm     81 % 0 mm
16:48 10.9 °C 8 °C 1016.1 hPa Calm     82 % 0 mm
16:53 10.9 °C 7.8 °C 1016.1 hPa Calm     81 % 0 mm
16:58 10.8 °C 7.9 °C 1016.1 hPa Calm     82 % 0 mm
17:03 10.8 °C 7.9 °C 1016.1 hPa Calm     82 % 0 mm
17:08 10.8 °C 7.8 °C 1016.1 hPa Calm     82 % 0 mm
17:13 10.8 °C 8 °C 1016.1 hPa Calm     83 % 0 mm
17:18 10.7 °C 8.1 °C 1016.1 hPa Calm     84 % 0 mm
17:23 10.7 °C 8.1 °C 1016.1 hPa Calm     84 % 0 mm
17:28 10.6 °C 8.1 °C 1016.5 hPa Calm     85 % 0 mm
17:33 10.5 °C 8.1 °C 1016.1 hPa Calm     85 % 0 mm
17:38 10.5 °C 8.3 °C 1016.1 hPa Calm     86 % 0 mm
17:43 10.4 °C 8.4 °C 1016.1 hPa Calm     87 % 0 mm
17:48 10.4 °C 8.3 °C 1016.5 hPa Calm     87 % 0 mm
17:53 10.3 °C 8.3 °C 1016.5 hPa Calm     87 % 0 mm
17:58 10.3 °C 8.4 °C 1016.5 hPa Calm     88 % 0 mm
18:03 10.2 °C 8.3 °C 1016.5 hPa Calm     88 % 0 mm
18:08 10.1 °C 8.3 °C 1016.5 hPa Calm     89 % 0 mm
18:13 9.9 °C 8.2 °C 1016.5 hPa Calm     89 % 0 mm
18:18 9.9 °C 8.2 °C 1016.5 hPa Calm     89 % 0 mm
18:23 9.8 °C 8.2 °C 1016.5 hPa Calm     90 % 0 mm
18:28 9.7 °C 8.1 °C 1016.5 hPa Calm     90 % 0 mm
18:33 9.5 °C 7.9 °C 1016.5 hPa Calm     90 % 0 mm
18:38 9.4 °C 7.8 °C 1016.5 hPa Calm     90 % 0 mm
18:43 9.3 °C 7.8 °C 1016.5 hPa Calm     90 % 0 mm
18:48 9.2 °C 7.6 °C 1016.5 hPa Calm     90 % 0 mm
18:53 9 °C 7.6 °C 1016.5 hPa Calm     91 % 0 mm
18:58 8.8 °C 7.4 °C 1016.5 hPa Calm     91 % 0 mm
19:03 8.7 °C 7.3 °C 1016.5 hPa Calm     91 % 0 mm
19:08 8.5 °C 7.1 °C 1016.5 hPa Calm     91 % 0 mm
19:13 8.4 °C 7.2 °C 1016.5 hPa Calm     92 % 0 mm
19:19 8.2 °C 7 °C 1016.5 hPa Calm     92 % 0 mm
19:24 8.1 °C 6.9 °C 1016.5 hPa Calm     92 % 0 mm
19:29 8.1 °C 6.8 °C 1016.5 hPa Calm     92 % 0 mm
19:34 8 °C 6.8 °C 1016.5 hPa Calm     92 % 0 mm
19:39 7.8 °C 6.6 °C 1016.5 hPa Calm     92 % 0 mm
19:44 7.7 °C 6.5 °C 1016.5 hPa Calm     92 % 0 mm
19:49 7.6 °C 6.4 °C 1016.5 hPa Calm     92 % 0 mm
19:54 7.4 °C 6.3 °C 1016.5 hPa Calm     93 % 0 mm
19:59 7.3 °C 6.2 °C 1016.8 hPa Calm     93 % 0 mm
20:04 7.2 °C 6.1 °C 1016.8 hPa Calm     93 % 0 mm
20:09 7.2 °C 6.1 °C 1016.8 hPa Calm     93 % 0 mm
20:14 7.1 °C 6.1 °C 1016.8 hPa Calm     93 % 0 mm
20:19 7 °C 5.9 °C 1016.8 hPa Calm     93 % 0 mm
20:24 6.9 °C 5.9 °C 1017.2 hPa Calm     93 % 0 mm
20:29 6.9 °C 6 °C 1017.2 hPa Calm   0.2 km/h 94 % 0 mm
20:34 6.8 °C 5.9 °C 1017.2 hPa Calm     94 % 0 mm
20:39 6.8 °C 5.9 °C 1017.2 hPa Calm     94 % 0 mm
20:44 6.8 °C 5.9 °C 1017.2 hPa Calm     94 % 0 mm
20:49 6.7 °C 5.8 °C 1017.2 hPa Calm     94 % 0 mm
20:54 6.7 °C 5.8 °C 1017.2 hPa SE 1.9 km/h   94 % 0 mm
20:59 6.9 °C 6 °C 1017.2 hPa SE 1.9 km/h   94 % 0 mm
21:04 6.9 °C 6.1 °C 1017.5 hPa ESE 1.9 km/h   94 % 0 mm
21:09 6.9 °C 6.1 °C 1017.5 hPa Calm     94 % 0 mm
21:14 6.9 °C 6.1 °C 1017.5 hPa Calm     94 % 0 mm
21:19 6.9 °C 6 °C 1017.5 hPa SSE 1.9 km/h   94 % 0 mm
21:24 6.8 °C 5.9 °C 1017.5 hPa Calm     94 % 0 mm
21:25 6.8 °C 5.9 °C 1017.5 hPa Calm     94 % 0 mm
21:30 6.8 °C 5.9 °C 1017.5 hPa Calm     94 % 0 mm
21:35 6.8 °C 5.9 °C 1017.5 hPa Calm     94 % 0 mm
21:40 6.8 °C 5.9 °C 1017.5 hPa Calm     94 % 0 mm
21:45 6.7 °C 5.8 °C 1017.5 hPa Calm     94 % 0 mm
21:50 6.6 °C 5.7 °C 1017.5 hPa Calm     94 % 0 mm
21:55 6.5 °C 5.6 °C 1017.8 hPa Calm     94 % 0 mm
22:00 6.3 °C 5.4 °C 1017.8 hPa Calm     94 % 0 mm
22:05 6.3 °C 5.4 °C 1017.8 hPa Calm     94 % 0 mm
22:10 6.2 °C 5.3 °C 1017.8 hPa Calm     94 % 0 mm
22:15 6.1 °C 5.3 °C 1017.8 hPa Calm     95 % 0 mm
22:20 6 °C 5.3 °C 1017.8 hPa Calm     95 % 0 mm
22:25 5.8 °C 5.1 °C 1017.8 hPa Calm     95 % 0 mm
22:30 5.8 °C 5.1 °C 1017.8 hPa West 1.9 km/h   95 % 0 mm
22:35 5.8 °C 5.1 °C 1017.8 hPa Calm     95 % 0 mm
22:40 5.7 °C 4.9 °C 1017.8 hPa Calm     95 % 0 mm
22:45 5.5 °C 4.8 °C 1017.8 hPa Calm     95 % 0 mm
22:50 5.5 °C 4.8 °C 1017.8 hPa Calm     95 % 0 mm
22:55 5.4 °C 4.7 °C 1017.8 hPa Calm     95 % 0 mm
23:00 5.3 °C 4.6 °C 1018.2 hPa Calm     95 % 0 mm
23:05 5.3 °C 4.6 °C 1017.8 hPa Calm     95 % 0 mm
23:10 5.3 °C 4.6 °C 1017.8 hPa Calm     95 % 0 mm
23:15 5.3 °C 4.6 °C 1017.8 hPa Calm     95 % 0 mm
23:20 5.3 °C 4.6 °C 1017.8 hPa Calm     95 % 0 mm
23:25 5.2 °C 4.4 °C 1017.8 hPa Calm     95 % 0 mm
23:30 5.1 °C 4.4 °C 1017.8 hPa Calm     95 % 0 mm
23:35 5 °C 4.3 °C 1017.8 hPa Calm     95 % 0 mm
23:40 4.9 °C 4.2 °C 1017.8 hPa Calm     95 % 0 mm
23:45 4.9 °C 4.2 °C 1017.8 hPa Calm     95 % 0 mm
23:50 4.8 °C 4.1 °C 1017.8 hPa Calm     95 % 0 mm
23:55 4.6 °C 3.9 °C 1017.8 hPa Calm     95 % 0 mm
Park Place, Exeter, Tulare County, California, USA
Compliments of Weather Underground - 2.75 mb